createdAt,value
2023-03-15T00:02:07.530Z,997
2023-03-15T00:07:51.650Z,996.88
2023-03-15T00:13:35.422Z,996.81
2023-03-15T00:19:19.155Z,996.93
2023-03-15T00:25:02.814Z,996.98
2023-03-15T00:30:47.033Z,996.99
2023-03-15T00:36:32.940Z,996.98
2023-03-15T00:42:16.904Z,996.93
2023-03-15T00:48:00.762Z,996.88
2023-03-15T00:53:45.558Z,996.84
2023-03-15T00:59:30.060Z,996.84
2023-03-15T01:05:14.248Z,996.93
2023-03-15T01:11:01.914Z,996.97
2023-03-15T01:16:45.936Z,996.98
2023-03-15T01:22:29.530Z,997.09
2023-03-15T01:28:13.203Z,997.11
2023-03-15T01:33:57.278Z,997.21
2023-03-15T01:39:41.062Z,997.24
2023-03-15T01:45:39.777Z,997.29
2023-03-15T01:51:24.823Z,997.47
2023-03-15T01:57:11.487Z,997.53
2023-03-15T02:02:58.725Z,997.51
2023-03-15T02:08:44.278Z,997.69
2023-03-15T02:14:28.850Z,997.64
2023-03-15T02:20:19.166Z,997.59
2023-03-15T02:26:09.080Z,997.63
2023-03-15T02:31:53.406Z,997.65
2023-03-15T02:37:37.276Z,997.64
2023-03-15T02:43:24.161Z,997.64
2023-03-15T02:49:08.379Z,997.7
2023-03-15T02:54:52.222Z,997.65
2023-03-15T03:00:35.851Z,997.71
2023-03-15T03:06:19.493Z,997.8
2023-03-15T03:12:03.294Z,997.91
2023-03-15T03:17:47.433Z,998.05
2023-03-15T03:23:31.951Z,998.15
2023-03-15T03:29:15.762Z,998.16
2023-03-15T03:34:59.718Z,998.22
2023-03-15T03:40:49.163Z,998.32
2023-03-15T03:46:32.944Z,998.36
2023-03-15T03:52:16.576Z,998.42
2023-03-15T03:58:00.275Z,998.52
2023-03-15T04:03:43.961Z,998.63
2023-03-15T04:09:27.608Z,998.75
2023-03-15T04:15:12.215Z,998.91
2023-03-15T04:20:56.076Z,998.93
2023-03-15T04:26:39.838Z,998.93
2023-03-15T04:32:23.701Z,998.93
2023-03-15T04:38:07.745Z,998.97
2023-03-15T04:43:51.556Z,998.94
2023-03-15T04:49:35.254Z,999
2023-03-15T04:55:19.032Z,999.03
2023-03-15T05:01:02.992Z,999.11
2023-03-15T05:06:46.916Z,999.13
2023-03-15T05:12:30.856Z,999.27
2023-03-15T05:18:14.620Z,999.37
2023-03-15T05:23:58.520Z,999.47
2023-03-15T05:29:42.391Z,999.55
2023-03-15T05:35:26.144Z,999.67
2023-03-15T05:41:10.108Z,999.71
2023-03-15T05:46:53.715Z,999.71
2023-03-15T05:52:37.582Z,999.75
2023-03-15T05:58:21.547Z,999.89
2023-03-15T06:04:05.365Z,1000
2023-03-15T06:09:49.190Z,999.96
2023-03-15T06:15:32.881Z,1000.06
2023-03-15T06:21:16.753Z,1000.18
2023-03-15T06:27:00.906Z,1000.23
2023-03-15T06:32:44.740Z,1000.3
2023-03-15T06:38:28.532Z,1000.29
2023-03-15T06:44:12.220Z,1000.33
2023-03-15T06:49:57.735Z,1000.39
2023-03-15T06:55:41.532Z,1000.43
2023-03-15T07:01:25.072Z,1000.49
2023-03-15T07:07:09.452Z,1000.56
2023-03-15T07:12:53.231Z,1000.7
2023-03-15T07:18:37.133Z,1000.84
2023-03-15T07:24:20.950Z,1000.89
2023-03-15T07:30:05.087Z,1000.99
2023-03-15T07:35:48.934Z,1001.04
2023-03-15T07:41:32.932Z,1001.13
2023-03-15T07:47:16.656Z,1001.25
2023-03-15T07:53:00.327Z,1001.34
2023-03-15T07:58:44.098Z,1001.43
2023-03-15T08:04:27.788Z,1001.41
2023-03-15T08:10:12.266Z,1001.58
2023-03-15T08:15:56.097Z,1001.58
2023-03-15T08:21:40.049Z,1001.69
2023-03-15T08:27:23.847Z,1001.7
2023-03-15T08:33:07.628Z,1001.7
2023-03-15T08:38:51.522Z,1001.67
2023-03-15T08:44:37.205Z,1001.72
2023-03-15T08:50:20.859Z,1001.86
2023-03-15T08:56:04.643Z,1001.94
2023-03-15T09:01:54.612Z,1001.97
2023-03-15T09:07:39.434Z,1002.03
2023-03-15T09:13:23.192Z,1002.12
2023-03-15T09:19:06.957Z,1002.17
2023-03-15T09:24:52.378Z,1002.25
2023-03-15T09:30:36.209Z,1002.21
2023-03-15T09:36:20.073Z,1002.24
2023-03-15T09:42:07.111Z,1002.32
2023-03-15T09:47:55.768Z,1002.36
2023-03-15T09:53:42.959Z,1002.29
2023-03-15T09:59:30.408Z,1002.31
2023-03-15T10:05:17.643Z,1002.26
2023-03-15T10:11:06.561Z,1002.24
2023-03-15T10:16:51.134Z,1002.25
2023-03-15T10:22:37.487Z,1002.22
2023-03-15T10:28:24.867Z,1002.28
2023-03-15T10:34:09.444Z,1002.37
2023-03-15T10:39:55.528Z,1002.36
2023-03-15T10:45:39.721Z,1002.4
2023-03-15T10:51:25.837Z,1002.38
2023-03-15T10:57:15.013Z,1002.47
2023-03-15T11:03:06.385Z,1002.49
2023-03-15T11:08:50.276Z,1002.59
2023-03-15T11:14:38.642Z,1002.51
2023-03-15T11:20:29.117Z,1002.61
2023-03-15T11:26:31.827Z,1002.65
2023-03-15T11:32:18.855Z,1002.66
2023-03-15T11:38:15.153Z,1002.7
2023-03-15T11:44:07.311Z,1002.69
2023-03-15T11:49:52.110Z,1002.68
2023-03-15T11:55:35.884Z,1002.72
2023-03-15T12:01:25.040Z,1002.64
2023-03-15T12:07:14.398Z,1002.61
2023-03-15T12:13:06.137Z,1002.64
2023-03-15T12:18:50.432Z,1002.6
2023-03-15T12:24:36.912Z,1002.59
2023-03-15T12:30:24.236Z,1002.49
2023-03-15T12:36:09.986Z,1002.45
2023-03-15T12:41:53.939Z,1002.43
2023-03-15T12:47:53.071Z,1002.38
2023-03-15T12:53:43.136Z,1002.36
2023-03-15T12:59:32.974Z,1002.28
2023-03-15T13:05:18.826Z,1002.33
2023-03-15T13:11:07.606Z,1002.33
2023-03-15T13:16:54.739Z,1002.27
2023-03-15T13:22:55.351Z,1002.24
2023-03-15T13:28:40.242Z,1002.29
2023-03-15T13:34:24.842Z,1002.4
2023-03-15T13:40:13.168Z,1002.3
2023-03-15T13:45:57.068Z,1002.24
2023-03-15T13:51:41.447Z,1002.29
2023-03-15T13:57:25.335Z,1002.38
2023-03-15T14:03:13.984Z,1002.34
2023-03-15T14:09:01.350Z,1002.42
2023-03-15T14:14:49.471Z,1002.45
2023-03-15T14:20:36.838Z,1002.51
2023-03-15T14:26:23.323Z,1002.46
2023-03-15T14:32:09.388Z,1002.48
2023-03-15T14:38:07.800Z,1002.49
2023-03-15T14:43:51.857Z,1002.44
2023-03-15T14:49:35.757Z,1002.41
2023-03-15T14:55:24.645Z,1002.35
2023-03-15T15:01:10.493Z,1002.31
2023-03-15T15:06:55.751Z,1002.26
2023-03-15T15:12:39.545Z,1002.22
2023-03-15T15:18:23.494Z,1002.18
2023-03-15T15:24:11.916Z,1002.14
2023-03-15T15:29:55.614Z,1002.12
2023-03-15T15:35:39.479Z,1002.11
2023-03-15T15:41:24.733Z,1002.04
2023-03-15T15:47:08.647Z,1002.09
2023-03-15T15:52:53.185Z,1001.98
2023-03-15T15:58:36.995Z,1001.95
2023-03-15T16:04:26.881Z,1001.91
2023-03-15T16:10:17.069Z,1001.82
2023-03-15T16:16:00.954Z,1001.81
2023-03-15T16:21:46.220Z,1001.83
2023-03-15T16:27:30.562Z,1001.84
2023-03-15T16:33:15.882Z,1001.78
2023-03-15T16:39:00.871Z,1001.81
2023-03-15T16:44:45.079Z,1001.78
2023-03-15T16:50:28.905Z,1001.76
2023-03-15T16:56:14.905Z,1001.74
2023-03-15T17:01:58.727Z,1001.8
2023-03-15T17:07:43.201Z,1001.87
2023-03-15T17:13:29.535Z,1001.85
2023-03-15T17:19:15.530Z,1001.93
2023-03-15T17:24:59.014Z,1001.92
2023-03-15T17:30:42.727Z,1001.92
2023-03-15T17:36:31.286Z,1001.88
2023-03-15T17:42:16.301Z,1001.91
2023-03-15T17:48:00.116Z,1001.98
2023-03-15T17:53:43.979Z,1002
2023-03-15T17:59:27.892Z,1002
2023-03-15T18:05:14.232Z,1001.96
2023-03-15T18:10:58.300Z,1002.05
2023-03-15T18:16:42.277Z,1002.03
2023-03-15T18:22:26.139Z,1002.07
2023-03-15T18:28:09.878Z,1002.16
2023-03-15T18:33:54.362Z,1002.2
2023-03-15T18:39:38.326Z,1002.17
2023-03-15T18:45:23.242Z,1002.12
2023-03-15T18:51:09.747Z,1002.09
2023-03-15T18:56:53.354Z,1002.12
2023-03-15T19:02:37.242Z,1002.19
2023-03-15T19:08:20.831Z,1002.2
2023-03-15T19:14:04.719Z,1002.16
2023-03-15T19:19:48.380Z,1002.14
2023-03-15T19:25:32.144Z,1002.1
2023-03-15T19:31:16.109Z,1002.06
2023-03-15T19:37:00.052Z,1001.97
2023-03-15T19:42:44.902Z,1002
2023-03-15T19:48:29.568Z,1001.97
2023-03-15T19:54:13.026Z,1001.96
2023-03-15T19:59:56.752Z,1001.97
2023-03-15T20:05:42.272Z,1001.96
2023-03-15T20:11:26.002Z,1001.94
2023-03-15T20:17:10.816Z,1002.01
2023-03-15T20:22:54.748Z,1002
2023-03-15T20:28:38.884Z,1001.98
2023-03-15T20:34:22.588Z,1002.04
2023-03-15T20:40:07.107Z,1002.09
2023-03-15T20:45:54.632Z,1002.02
2023-03-15T20:51:38.376Z,1001.98
2023-03-15T20:57:22.236Z,1001.91
2023-03-15T21:03:05.991Z,1001.87
2023-03-15T21:08:49.940Z,1001.84
2023-03-15T21:14:33.793Z,1001.83
2023-03-15T21:20:17.842Z,1001.81
2023-03-15T21:26:02.664Z,1001.83
2023-03-15T21:31:46.553Z,1001.77
2023-03-15T21:37:30.465Z,1001.67
2023-03-15T21:43:15.330Z,1001.72
2023-03-15T21:48:59.117Z,1001.8
2023-03-15T21:54:43.159Z,1001.77
2023-03-15T22:00:27.704Z,1001.84
2023-03-15T22:06:11.886Z,1001.85
2023-03-15T22:11:55.635Z,1001.72
2023-03-15T22:17:39.506Z,1001.59
2023-03-15T22:23:23.491Z,1001.62
2023-03-15T22:29:07.262Z,1001.64
2023-03-15T22:34:50.955Z,1001.64
2023-03-15T22:40:34.610Z,1001.58
2023-03-15T22:46:18.346Z,1001.52
2023-03-15T22:52:02.142Z,1001.48
2023-03-15T22:57:45.930Z,1001.37
2023-03-15T23:03:29.595Z,1001.33
2023-03-15T23:09:13.352Z,1001.29
2023-03-15T23:14:57.490Z,1001.27
2023-03-15T23:20:41.535Z,1001.26
2023-03-15T23:26:25.455Z,1001.27
2023-03-15T23:32:09.519Z,1001.2
2023-03-15T23:37:54.622Z,1001.21
2023-03-15T23:43:38.664Z,1001.17
2023-03-15T23:49:22.555Z,1001.19
2023-03-15T23:55:06.698Z,1001.21
